createdAt,value
2019-05-21T00:00:39.295Z,200.87
2019-05-21T00:03:05.361Z,199.75
2019-05-21T00:05:31.409Z,218.85
2019-05-21T00:07:57.451Z,169.62
2019-05-21T00:10:23.513Z,256.80
2019-05-21T00:12:49.572Z,227.53
2019-05-21T00:15:15.834Z,234.18
2019-05-21T00:17:41.973Z,210.70
2019-05-21T00:20:08.608Z,229.13
2019-05-21T00:22:35.072Z,207.10
2019-05-21T00:25:02.312Z,205.72
2019-05-21T00:27:28.512Z,238.68
2019-05-21T00:30:32.410Z,254.82
2019-05-21T00:33:35.982Z,222.15
2019-05-21T00:36:40.622Z,210.25
2019-05-21T00:39:44.436Z,208.55
2019-05-21T00:42:14.592Z,144.50
2019-05-21T00:44:41.796Z,153.95
2019-05-21T00:47:10.141Z,150.90
2019-05-21T00:49:36.604Z,163.60
2019-05-21T00:52:09.027Z,166.03
2019-05-21T00:54:31.995Z,157.75
2019-05-21T00:56:58.035Z,142.32
2019-05-21T00:59:24.205Z,181.15
2019-05-21T01:01:50.460Z,160.63
2019-05-21T01:04:16.529Z,198.00
2019-05-21T01:06:42.674Z,164.62
2019-05-21T01:09:09.013Z,170.53
2019-05-21T01:11:35.135Z,125.50
2019-05-21T01:14:01.199Z,130.12
2019-05-21T01:16:27.249Z,144.65
2019-05-21T01:18:53.282Z,154.93
2019-05-21T01:21:50.647Z,149.80
2019-05-21T01:24:16.893Z,240.43
2019-05-21T01:27:25.012Z,146.77
2019-05-21T01:29:51.081Z,149.68
2019-05-21T01:32:17.136Z,230.57
2019-05-21T01:34:43.186Z,169.97
2019-05-21T01:37:09.235Z,225.68
2019-05-21T01:39:35.275Z,227.43
2019-05-21T01:42:01.324Z,235.45
2019-05-21T01:44:27.399Z,219.40
2019-05-21T01:46:53.512Z,241.38
2019-05-21T01:49:19.576Z,209.62
2019-05-21T01:51:45.669Z,230.07
2019-05-21T01:54:11.761Z,229.35
2019-05-21T01:56:37.844Z,166.47
2019-05-21T01:59:04.011Z,211.62
2019-05-21T02:01:30.200Z,197.47
2019-05-21T02:03:56.280Z,156.45
2019-05-21T02:06:23.289Z,182.70
2019-05-21T02:08:49.567Z,171.40
2019-05-21T02:11:15.651Z,162.65
2019-05-21T02:13:41.721Z,165.75
2019-05-21T02:16:07.807Z,150.15
2019-05-21T02:18:33.869Z,157.32
2019-05-21T02:20:59.951Z,158.00
2019-05-21T02:23:26.027Z,122.67
2019-05-21T02:25:52.298Z,172.20
2019-05-21T02:28:18.423Z,149.40
2019-05-21T02:30:44.509Z,174.70
2019-05-21T02:33:10.581Z,158.57
2019-05-21T02:35:52.910Z,127.12
2019-05-21T02:38:04.654Z,163.65
2019-05-21T02:40:30.840Z,155.60
2019-05-21T02:42:56.910Z,119.93
2019-05-21T02:45:23.193Z,131.15
2019-05-21T02:47:49.268Z,143.97
2019-05-21T02:50:15.661Z,140.92
2019-05-21T02:52:41.828Z,141.60
2019-05-21T02:55:08.396Z,148.65
2019-05-21T02:57:42.807Z,133.27
2019-05-21T03:00:16.115Z,152.00
2019-05-21T03:02:42.489Z,150.75
2019-05-21T03:05:08.753Z,145.17
2019-05-21T03:07:35.040Z,137.75
2019-05-21T03:10:01.322Z,141.12
2019-05-21T03:12:27.545Z,139.22
2019-05-21T03:14:53.709Z,138.00
2019-05-21T03:17:19.894Z,145.25
2019-05-21T03:19:46.071Z,145.87
2019-05-21T03:22:12.158Z,140.65
2019-05-21T03:24:38.324Z,198.93
2019-05-21T03:27:04.515Z,187.47
2019-05-21T03:29:30.593Z,196.00
2019-05-21T03:31:56.677Z,191.12
2019-05-21T03:34:22.752Z,185.20
2019-05-21T03:36:48.846Z,175.85
2019-05-21T03:39:19.118Z,166.28
2019-05-21T03:41:42.899Z,146.15
2019-05-21T03:44:09.076Z,149.35
2019-05-21T03:46:35.156Z,148.35
2019-05-21T03:49:01.233Z,144.87
2019-05-21T03:51:27.408Z,150.78
2019-05-21T03:53:53.474Z,151.90
2019-05-21T03:56:19.569Z,151.47
2019-05-21T03:58:45.638Z,139.92
2019-05-21T04:01:11.768Z,148.82
2019-05-21T04:03:37.844Z,157.47
2019-05-21T04:06:03.931Z,122.85
2019-05-21T04:08:30.049Z,124.33
2019-05-21T04:10:56.187Z,143.75
2019-05-21T04:13:22.396Z,139.95
2019-05-21T04:15:52.875Z,129.55
2019-05-21T04:18:27.168Z,132.82
2019-05-21T04:20:53.336Z,120.08
2019-05-21T04:23:19.490Z,125.15
2019-05-21T04:25:45.695Z,145.90
2019-05-21T04:28:11.867Z,138.40
2019-05-21T04:30:37.950Z,125.07
2019-05-21T04:33:04.146Z,131.30
2019-05-21T04:35:30.306Z,122.95
2019-05-21T04:37:56.379Z,136.70
2019-05-21T04:40:23.611Z,180.18
2019-05-21T04:42:49.681Z,126.65
2019-05-21T04:45:15.867Z,121.20
2019-05-21T04:47:42.035Z,148.60
2019-05-21T04:50:08.515Z,121.22
2019-05-21T04:52:34.777Z,120.37
2019-05-21T04:55:00.861Z,121.28
2019-05-21T04:57:26.931Z,137.12
2019-05-21T04:59:52.989Z,122.70
2019-05-21T05:02:19.081Z,126.67
2019-05-21T05:04:45.167Z,128.70
2019-05-21T05:07:26.761Z,117.47
2019-05-21T05:09:39.233Z,117.77
2019-05-21T05:12:05.312Z,124.92
2019-05-21T05:14:31.384Z,127.50
2019-05-21T05:16:57.478Z,139.28
2019-05-21T05:19:23.556Z,124.58
2019-05-21T05:21:49.615Z,162.30
2019-05-21T05:24:15.705Z,127.10
2019-05-21T05:26:41.763Z,136.10
2019-05-21T05:29:07.847Z,136.43
2019-05-21T05:31:33.915Z,135.55
2019-05-21T05:34:00.015Z,131.95
2019-05-21T05:36:26.071Z,130.50
2019-05-21T05:38:52.187Z,123.25
2019-05-21T05:41:18.328Z,129.25
2019-05-21T05:43:44.414Z,126.72
2019-05-21T05:46:10.482Z,120.55
2019-05-21T05:48:38.479Z,130.47
2019-05-21T05:51:06.595Z,136.40
2019-05-21T05:53:34.672Z,142.00
2019-05-21T05:56:01.838Z,127.05
2019-05-21T05:58:27.926Z,133.55
2019-05-21T06:00:54.088Z,136.95
2019-05-21T06:03:20.166Z,130.07
2019-05-21T06:05:46.243Z,131.90
2019-05-21T06:08:12.339Z,130.57
2019-05-21T06:10:40.167Z,135.10
2019-05-21T06:13:06.404Z,137.77
2019-05-21T06:15:32.473Z,133.70
2019-05-21T06:17:58.563Z,130.95
2019-05-21T06:20:24.943Z,131.72
2019-05-21T06:22:51.018Z,133.37
2019-05-21T06:25:17.677Z,167.90
2019-05-21T06:27:43.968Z,139.28
2019-05-21T06:30:10.855Z,123.87
2019-05-21T06:32:36.926Z,128.12
2019-05-21T06:35:04.704Z,128.62
2019-05-21T06:37:30.807Z,131.60
2019-05-21T06:39:56.963Z,164.13
2019-05-21T06:42:23.043Z,131.67
2019-05-21T06:44:49.232Z,138.55
2019-05-21T06:47:15.293Z,128.42
2019-05-21T06:49:41.381Z,128.10
2019-05-21T06:52:07.448Z,149.32
2019-05-21T06:54:33.524Z,130.47
2019-05-21T06:56:59.702Z,131.05
2019-05-21T06:59:25.788Z,126.60
2019-05-21T07:01:51.851Z,128.78
2019-05-21T07:04:17.937Z,130.20
2019-05-21T07:06:44.838Z,131.05
2019-05-21T07:09:11.186Z,128.23
2019-05-21T07:11:37.257Z,129.85
2019-05-21T07:14:03.564Z,131.27
2019-05-21T07:16:29.656Z,136.57
2019-05-21T07:18:55.742Z,132.40
2019-05-21T07:21:21.802Z,132.10
2019-05-21T07:23:47.894Z,124.65
2019-05-21T07:26:14.058Z,127.58
2019-05-21T07:28:40.193Z,130.25
2019-05-21T07:31:06.367Z,131.25
2019-05-21T07:33:32.627Z,124.25
2019-05-21T07:35:58.716Z,132.78
2019-05-21T07:38:24.804Z,133.25
2019-05-21T07:40:50.885Z,128.32
2019-05-21T07:43:17.067Z,133.10
2019-05-21T07:45:43.233Z,133.95
2019-05-21T07:48:09.314Z,125.53
2019-05-21T07:50:35.384Z,131.67
2019-05-21T07:53:01.448Z,134.67
2019-05-21T07:55:27.523Z,159.12
2019-05-21T07:57:53.596Z,127.55
2019-05-21T08:00:20.175Z,128.47
2019-05-21T08:02:46.251Z,129.63
2019-05-21T08:05:12.435Z,134.70
2019-05-21T08:07:38.702Z,143.22
2019-05-21T08:10:06.013Z,133.70
2019-05-21T08:12:39.102Z,158.10
2019-05-21T08:15:00.188Z,135.48
2019-05-21T08:17:26.261Z,138.55
2019-05-21T08:19:52.323Z,143.78
2019-05-21T08:22:18.409Z,136.82
2019-05-21T08:24:44.563Z,126.92
2019-05-21T08:27:10.851Z,132.30
2019-05-21T08:29:36.928Z,140.90
2019-05-21T08:32:03.010Z,138.88
2019-05-21T08:34:29.072Z,134.80
2019-05-21T08:36:55.140Z,136.72
2019-05-21T08:39:28.781Z,129.00
2019-05-21T08:41:49.199Z,138.22
2019-05-21T08:44:15.266Z,131.10
2019-05-21T08:46:41.348Z,133.40
2019-05-21T08:49:07.416Z,141.30
2019-05-21T08:51:33.500Z,132.67
2019-05-21T08:53:59.579Z,133.30
2019-05-21T08:56:25.665Z,152.02
2019-05-21T08:58:51.960Z,129.97
2019-05-21T09:01:18.035Z,136.07
2019-05-21T09:03:44.125Z,129.50
2019-05-21T09:06:10.304Z,139.00
2019-05-21T09:08:36.401Z,137.03
2019-05-21T09:11:02.566Z,136.57
2019-05-21T09:13:29.671Z,132.65
2019-05-21T09:15:55.943Z,131.35
2019-05-21T09:18:22.153Z,151.27
2019-05-21T09:20:48.300Z,129.85
2019-05-21T09:23:14.586Z,133.18
2019-05-21T09:25:40.659Z,134.57
2019-05-21T09:28:06.744Z,135.88
2019-05-21T09:30:33.013Z,154.23
2019-05-21T09:32:59.230Z,143.45
2019-05-21T09:35:25.286Z,140.03
2019-05-21T09:37:51.460Z,143.47
2019-05-21T09:40:18.505Z,222.85
2019-05-21T09:42:45.589Z,157.88
2019-05-21T09:45:12.323Z,136.15
2019-05-21T09:47:38.637Z,152.95
2019-05-21T09:50:06.258Z,147.57
2019-05-21T09:52:32.623Z,138.72
2019-05-21T09:54:58.719Z,139.80
2019-05-21T09:57:43.627Z,142.40
2019-05-21T10:00:33.329Z,138.28
2019-05-21T10:03:00.220Z,140.68
2019-05-21T10:05:26.309Z,143.97
2019-05-21T10:07:52.403Z,149.77
2019-05-21T10:10:18.492Z,214.63
2019-05-21T10:12:44.567Z,143.60
2019-05-21T10:15:11.062Z,147.90
2019-05-21T10:17:37.156Z,138.10
2019-05-21T10:20:04.435Z,144.05
2019-05-21T10:22:30.579Z,140.85
2019-05-21T10:24:56.681Z,146.85
2019-05-21T10:27:22.847Z,141.95
2019-05-21T10:29:48.911Z,150.27
2019-05-21T10:32:14.998Z,144.25
2019-05-21T10:34:41.080Z,147.55
2019-05-21T10:37:07.278Z,146.70
2019-05-21T10:39:33.509Z,149.40
2019-05-21T10:41:59.549Z,142.98
2019-05-21T10:44:25.600Z,142.72
2019-05-21T10:46:51.664Z,139.50
2019-05-21T10:49:17.759Z,160.50
2019-05-21T10:51:43.823Z,160.70
2019-05-21T10:54:10.099Z,165.28
2019-05-21T10:56:47.477Z,163.45
2019-05-21T10:59:04.156Z,157.82
2019-05-21T11:01:32.132Z,142.25
2019-05-21T11:04:11.984Z,164.35
2019-05-21T11:06:39.059Z,147.05
2019-05-21T11:09:07.852Z,139.75
2019-05-21T11:11:34.116Z,140.92
2019-05-21T11:14:00.228Z,169.95
2019-05-21T11:16:26.382Z,146.15
2019-05-21T11:18:52.688Z,138.20
2019-05-21T11:21:18.804Z,145.70
2019-05-21T11:23:44.923Z,144.93
2019-05-21T11:26:11.355Z,142.45
2019-05-21T11:28:37.448Z,139.12
2019-05-21T11:31:03.646Z,140.82
2019-05-21T11:33:29.794Z,138.80
2019-05-21T11:35:55.879Z,147.22
2019-05-21T11:38:21.950Z,146.22
2019-05-21T11:40:50.937Z,145.55
2019-05-21T11:43:16.123Z,153.12
2019-05-21T11:45:42.191Z,148.17
2019-05-21T11:48:08.267Z,139.85
2019-05-21T11:50:34.571Z,148.43
2019-05-21T11:53:00.728Z,156.65
2019-05-21T11:55:26.818Z,244.80
2019-05-21T11:57:52.983Z,159.30
2019-05-21T12:00:22.122Z,148.72
2019-05-21T12:02:48.239Z,150.30
2019-05-21T12:05:14.541Z,143.17
2019-05-21T12:07:40.712Z,155.60
2019-05-21T12:10:07.164Z,152.32
2019-05-21T12:12:33.235Z,145.10
2019-05-21T12:14:59.343Z,148.55
2019-05-21T12:17:25.521Z,152.60
2019-05-21T12:19:51.820Z,152.60
2019-05-21T12:22:17.880Z,142.90
2019-05-21T12:24:43.978Z,163.80
2019-05-21T12:27:10.038Z,143.85
2019-05-21T12:29:36.128Z,145.20
2019-05-21T12:32:02.198Z,146.32
2019-05-21T12:34:28.290Z,144.75
2019-05-21T12:36:54.368Z,142.22
2019-05-21T12:39:20.539Z,139.62
2019-05-21T12:41:46.598Z,149.07
2019-05-21T12:44:12.715Z,149.42
2019-05-21T12:46:39.554Z,149.87
2019-05-21T12:49:05.648Z,139.72
2019-05-21T12:51:31.740Z,133.05
2019-05-21T12:53:57.904Z,140.57
2019-05-21T12:56:23.979Z,140.52
2019-05-21T12:58:50.037Z,143.40
2019-05-21T13:01:16.121Z,143.28
2019-05-21T13:03:42.188Z,137.75
2019-05-21T13:06:08.287Z,139.03
2019-05-21T13:08:34.458Z,152.43
2019-05-21T13:11:00.528Z,155.35
2019-05-21T13:13:26.599Z,142.60
2019-05-21T13:15:52.679Z,143.17
2019-05-21T13:18:18.973Z,141.90
2019-05-21T13:20:45.144Z,139.97
2019-05-21T13:23:11.631Z,134.80
2019-05-21T13:25:37.899Z,139.40
2019-05-21T13:28:04.262Z,147.60
2019-05-21T13:30:30.338Z,143.35
2019-05-21T13:32:56.402Z,141.68
2019-05-21T13:35:22.540Z,135.82
2019-05-21T13:37:49.308Z,142.60
2019-05-21T13:40:16.302Z,146.37
2019-05-21T13:42:42.359Z,139.15
2019-05-21T13:45:09.340Z,139.15
2019-05-21T13:47:35.516Z,132.52
2019-05-21T13:50:06.451Z,146.60
2019-05-21T13:52:32.534Z,141.15
2019-05-21T13:54:58.595Z,141.43
2019-05-21T13:57:24.722Z,139.30
2019-05-21T13:59:51.064Z,136.03
2019-05-21T14:02:18.153Z,144.22
2019-05-21T14:04:44.439Z,138.25
2019-05-21T14:07:10.616Z,147.53
2019-05-21T14:09:36.787Z,133.30
2019-05-21T14:12:03.871Z,139.70
2019-05-21T14:14:29.960Z,135.72
2019-05-21T14:16:56.060Z,145.12
2019-05-21T14:19:22.127Z,135.25
2019-05-21T14:21:48.227Z,150.78
2019-05-21T14:24:14.285Z,141.07
2019-05-21T14:26:40.397Z,133.70
2019-05-21T14:29:06.483Z,147.82
2019-05-21T14:31:32.541Z,151.18
2019-05-21T14:33:58.611Z,133.25
2019-05-21T14:36:24.698Z,138.90
2019-05-21T14:38:50.861Z,146.65
2019-05-21T14:41:17.054Z,138.28
2019-05-21T14:43:43.233Z,139.70
2019-05-21T14:46:09.307Z,140.88
2019-05-21T14:48:35.548Z,140.18
2019-05-21T14:51:01.700Z,134.87
2019-05-21T14:53:27.796Z,142.35
2019-05-21T14:55:53.851Z,138.60
2019-05-21T14:58:19.932Z,144.55
2019-05-21T15:00:46.024Z,133.32
2019-05-21T15:03:24.274Z,134.32
2019-05-21T15:05:40.069Z,137.75
2019-05-21T15:08:06.259Z,135.22
2019-05-21T15:10:47.231Z,154.45
2019-05-21T15:13:05.290Z,138.92
2019-05-21T15:15:28.634Z,139.45
2019-05-21T15:17:54.724Z,138.62
2019-05-21T15:20:36.277Z,142.65
2019-05-21T15:23:02.639Z,137.80
2019-05-21T15:25:28.742Z,164.57
2019-05-21T15:27:54.840Z,137.97
2019-05-21T15:30:21.022Z,133.37
2019-05-21T15:32:47.206Z,134.47
2019-05-21T15:35:13.377Z,139.68
2019-05-21T15:37:39.560Z,136.40
2019-05-21T15:40:06.130Z,134.27
2019-05-21T15:42:32.416Z,130.63
2019-05-21T15:44:58.583Z,125.12
2019-05-21T15:47:24.659Z,137.35
2019-05-21T15:49:50.724Z,242.50
2019-05-21T15:52:16.818Z,152.65
2019-05-21T15:54:42.985Z,179.32
2019-05-21T15:57:10.586Z,136.32
2019-05-21T15:59:37.035Z,211.75
2019-05-21T16:02:03.622Z,131.60
2019-05-21T16:04:29.687Z,135.95
2019-05-21T16:06:55.775Z,135.43
2019-05-21T16:09:21.834Z,129.65
2019-05-21T16:11:47.899Z,132.12
2019-05-21T16:14:13.975Z,133.47
2019-05-21T16:16:40.100Z,130.03
2019-05-21T16:19:06.284Z,132.78
2019-05-21T16:21:32.347Z,132.52
2019-05-21T16:23:58.436Z,139.03
2019-05-21T16:26:24.517Z,135.30
2019-05-21T16:28:50.604Z,135.55
2019-05-21T16:31:16.665Z,144.43
2019-05-21T16:33:42.809Z,131.32
2019-05-21T16:36:08.947Z,134.20
2019-05-21T16:38:35.324Z,126.85
2019-05-21T16:41:01.410Z,143.30
2019-05-21T16:43:27.495Z,132.03
2019-05-21T16:45:53.664Z,143.40
2019-05-21T16:48:19.739Z,131.65
2019-05-21T16:50:45.827Z,139.07
2019-05-21T16:53:12.042Z,130.72
2019-05-21T16:55:38.109Z,151.10
2019-05-21T16:58:04.204Z,136.32
2019-05-21T17:00:31.113Z,135.45
2019-05-21T17:02:57.241Z,141.65
2019-05-21T17:05:23.323Z,135.28
2019-05-21T17:07:49.388Z,140.35
2019-05-21T17:10:17.383Z,138.43
2019-05-21T17:12:43.471Z,150.93
2019-05-21T17:15:10.855Z,138.25
2019-05-21T17:17:36.938Z,135.07
2019-05-21T17:20:07.128Z,143.17
2019-05-21T17:22:33.386Z,163.90
2019-05-21T17:24:59.651Z,169.72
2019-05-21T17:27:25.716Z,145.05
2019-05-21T17:29:51.840Z,173.68
2019-05-21T17:32:17.920Z,145.95
2019-05-21T17:34:44.000Z,140.82
2019-05-21T17:37:10.069Z,146.30
2019-05-21T17:39:36.356Z,150.22
2019-05-21T17:42:14.730Z,141.68
2019-05-21T17:44:30.817Z,144.77
2019-05-21T17:46:56.982Z,158.55
2019-05-21T17:49:23.066Z,150.57
2019-05-21T17:51:49.244Z,154.75
2019-05-21T17:54:15.319Z,148.07
2019-05-21T17:56:41.406Z,142.10
2019-05-21T17:59:07.488Z,146.93
2019-05-21T18:01:33.578Z,171.40
2019-05-21T18:04:00.264Z,165.75
2019-05-21T18:06:26.547Z,159.27
2019-05-21T18:08:53.342Z,148.38
2019-05-21T18:11:19.485Z,136.52
2019-05-21T18:13:48.079Z,134.27
2019-05-21T18:16:14.847Z,138.00
2019-05-21T18:18:41.148Z,134.85
2019-05-21T18:21:07.652Z,136.07
2019-05-21T18:23:34.023Z,140.65
2019-05-21T18:26:00.235Z,136.75
2019-05-21T18:28:26.334Z,129.80
2019-05-21T18:30:52.434Z,144.68
2019-05-21T18:33:18.931Z,133.80
2019-05-21T18:35:45.520Z,137.28
2019-05-21T18:38:12.016Z,140.92
2019-05-21T18:40:38.640Z,158.65
2019-05-21T18:43:04.912Z,136.45
2019-05-21T18:45:30.984Z,140.30
2019-05-21T18:47:57.176Z,139.32
2019-05-21T18:50:35.578Z,142.05
2019-05-21T18:52:51.249Z,143.97
2019-05-21T18:55:17.336Z,149.50
2019-05-21T18:57:43.526Z,137.30
2019-05-21T19:00:10.510Z,154.80
2019-05-21T19:02:36.702Z,147.55
2019-05-21T19:05:05.276Z,146.77
2019-05-21T19:07:31.446Z,141.73
2019-05-21T19:10:00.910Z,145.10
2019-05-21T19:12:37.247Z,143.05
2019-05-21T19:14:54.023Z,140.90
2019-05-21T19:17:33.265Z,133.97
2019-05-21T19:19:48.385Z,149.57
2019-05-21T19:22:14.463Z,144.28
2019-05-21T19:24:40.555Z,133.55
2019-05-21T19:27:06.836Z,143.17
2019-05-21T19:29:32.911Z,139.35
2019-05-21T19:31:59.013Z,131.50
2019-05-21T19:34:25.094Z,136.75
2019-05-21T19:36:51.151Z,137.35
2019-05-21T19:39:17.635Z,142.98
2019-05-21T19:41:43.800Z,130.75
2019-05-21T19:44:09.892Z,140.75
2019-05-21T19:46:35.959Z,130.22
2019-05-21T19:49:01.996Z,138.55
2019-05-21T19:51:28.280Z,136.75
2019-05-21T19:53:54.595Z,202.43
2019-05-21T19:56:20.939Z,138.75
2019-05-21T19:58:47.023Z,133.47
2019-05-21T20:01:13.222Z,131.22
2019-05-21T20:03:39.480Z,133.65
2019-05-21T20:06:08.152Z,141.65
2019-05-21T20:08:34.227Z,132.18
2019-05-21T20:11:00.316Z,133.72
2019-05-21T20:13:32.710Z,150.97
2019-05-21T20:15:54.890Z,143.82
2019-05-21T20:18:22.480Z,140.35
2019-05-21T20:20:49.163Z,140.15
2019-05-21T20:23:17.227Z,129.32
2019-05-21T20:25:56.149Z,167.10
2019-05-21T20:28:11.403Z,139.90
2019-05-21T20:30:37.473Z,129.15
2019-05-21T20:33:04.027Z,130.10
2019-05-21T20:35:30.602Z,138.22
2019-05-21T20:37:57.065Z,146.37
2019-05-21T20:40:23.764Z,233.43
2019-05-21T20:42:51.625Z,183.90
2019-05-21T20:45:18.649Z,139.75
2019-05-21T20:47:45.350Z,136.07
2019-05-21T20:50:14.619Z,128.27
2019-05-21T20:52:41.792Z,143.70
2019-05-21T20:55:08.777Z,141.73
2019-05-21T20:57:34.851Z,148.75
2019-05-21T21:00:00.936Z,145.87
2019-05-21T21:02:27.795Z,135.97
2019-05-21T21:04:54.099Z,134.50
2019-05-21T21:07:20.277Z,133.60
2019-05-21T21:09:46.459Z,129.38
2019-05-21T21:12:14.431Z,133.93
2019-05-21T21:14:40.724Z,131.18
2019-05-21T21:17:07.251Z,135.32
2019-05-21T21:19:33.439Z,129.75
2019-05-21T21:21:59.634Z,137.37
2019-05-21T21:24:26.004Z,136.40
2019-05-21T21:26:52.780Z,124.82
2019-05-21T21:29:18.968Z,128.27
2019-05-21T21:31:45.148Z,131.67
2019-05-21T21:34:12.011Z,127.15
2019-05-21T21:36:38.506Z,124.55
2019-05-21T21:39:05.879Z,130.50
2019-05-21T21:41:33.272Z,132.20
2019-05-21T21:43:59.940Z,128.78
2019-05-21T21:46:26.028Z,132.25
2019-05-21T21:48:52.297Z,126.87
2019-05-21T21:51:18.780Z,134.72
2019-05-21T21:53:45.056Z,125.65
2019-05-21T21:56:11.554Z,127.95
2019-05-21T21:58:37.698Z,134.57
2019-05-21T22:01:27.546Z,131.18
2019-05-21T22:03:56.908Z,132.55
2019-05-21T22:06:24.173Z,136.12
2019-05-21T22:08:50.988Z,134.47
2019-05-21T22:11:17.674Z,131.03
2019-05-21T22:13:44.941Z,123.35
2019-05-21T22:16:11.636Z,124.12
2019-05-21T22:18:37.924Z,124.53
2019-05-21T22:21:04.112Z,134.37
2019-05-21T22:23:30.708Z,129.12
2019-05-21T22:25:56.767Z,137.00
2019-05-21T22:28:23.344Z,133.78
2019-05-21T22:30:49.630Z,135.43
2019-05-21T22:33:16.503Z,132.60
2019-05-21T22:35:42.700Z,131.07
2019-05-21T22:38:09.176Z,127.90
2019-05-21T22:40:35.262Z,156.65
2019-05-21T22:43:01.642Z,126.12
2019-05-21T22:45:28.206Z,135.93
2019-05-21T22:47:54.285Z,134.70
2019-05-21T22:50:20.771Z,131.60
2019-05-21T22:52:46.853Z,135.12
2019-05-21T22:55:13.043Z,128.57
2019-05-21T22:57:39.234Z,135.03
2019-05-21T23:00:06.236Z,128.12
2019-05-21T23:02:34.667Z,141.30
2019-05-21T23:05:01.121Z,130.60
2019-05-21T23:07:27.344Z,135.82
2019-05-21T23:09:54.828Z,132.75
2019-05-21T23:12:20.912Z,129.90
2019-05-21T23:14:47.487Z,132.03
2019-05-21T23:17:13.591Z,132.25
2019-05-21T23:19:41.989Z,128.10
2019-05-21T23:22:09.104Z,134.35
2019-05-21T23:24:36.268Z,131.35
2019-05-21T23:27:04.267Z,136.77
2019-05-21T23:29:30.759Z,140.00
2019-05-21T23:31:56.874Z,132.10
2019-05-21T23:34:23.041Z,130.15
2019-05-21T23:36:51.032Z,190.90
2019-05-21T23:39:18.498Z,135.48
2019-05-21T23:41:45.081Z,135.03
2019-05-21T23:44:11.683Z,131.52
2019-05-21T23:46:37.860Z,129.53
2019-05-21T23:49:04.134Z,132.40
2019-05-21T23:51:30.301Z,134.40
2019-05-21T23:53:57.485Z,152.10
2019-05-21T23:56:24.049Z,127.40
2019-05-21T23:58:50.452Z,139.92
